CAY31SE MWCR-KLAX
Flight info
| Callsign | CAY31SE |
|---|---|
| Flight time | 1h 46m |
| Altitude | 34000 |
| Route | MAMBI2 MAMBI UL577 ILUBA DCT BESEK/N0464F360 DCT NOTEN UT37 EBDUB DCT MAM UJ2 CUU UT41 ILAMA/N0452F380 UT41 ASUTA DCT AMMOR OLAAA2 |
| Aircraft | B38M/M-SDE1FGHILORVWXY/HB1 |
Departure
| Time | 2026-05-08 17:52 |
|---|---|
| Airport | Owen Roberts International Airport (MWCR) |
Arrival
| Time | 2026-05-08 19:38 |
|---|---|
| Airport | Los Angeles International Airport (KLAX) |
| Time | Latitude | Longitude | Altitude | Speed | Heading |
|---|---|---|---|---|---|
| 2026-05-08 17:40 | 19.29509 | -81.35805 | 16 ft | 0 kts | 346° |
| 2026-05-08 17:46 | 19.29502 | -81.35803 | 16 ft | 2 kts | 346° |
| 2026-05-08 17:46 | 19.29463 | -81.35795 | 19 ft | 6 kts | 15° |
| 2026-05-08 17:46 | 19.29439 | -81.35820 | 16 ft | 0 kts | 69° |
| 2026-05-08 17:47 | 19.29439 | -81.35819 | 16 ft | 1 kts | 75° |
| 2026-05-08 17:47 | 19.29438 | -81.35802 | 17 ft | 4 kts | 101° |
| 2026-05-08 17:47 | 19.29440 | -81.35773 | 19 ft | 6 kts | 79° |
| 2026-05-08 17:47 | 19.29449 | -81.35734 | 15 ft | 9 kts | 72° |
| 2026-05-08 17:48 | 19.29471 | -81.35623 | 15 ft | 9 kts | 95° |
| 2026-05-08 17:48 | 19.29431 | -81.35563 | 15 ft | 9 kts | 112° |
| 2026-05-08 17:48 | 19.29441 | -81.35510 | 15 ft | 10 kts | 77° |
| 2026-05-08 17:48 | 19.29465 | -81.35411 | 15 ft | 17 kts | 76° |
| 2026-05-08 17:49 | 19.29499 | -81.35267 | 15 ft | 23 kts | 77° |
| 2026-05-08 17:49 | 19.29536 | -81.35102 | 15 ft | 22 kts | 78° |
| 2026-05-08 17:49 | 19.29571 | -81.34965 | 16 ft | 16 kts | 76° |
| 2026-05-08 17:49 | 19.29537 | -81.34876 | 18 ft | 11 kts | 148° |
| 2026-05-08 17:50 | 19.29487 | -81.34899 | 18 ft | 7 kts | 247° |
| 2026-05-08 17:50 | 19.29485 | -81.34911 | 20 ft | 0 kts | 256° |
| 2026-05-08 17:51 | 19.29474 | -81.34954 | 17 ft | 34 kts | 254° |
| 2026-05-08 17:51 | 19.29335 | -81.35533 | 15 ft | 125 kts | 256° |
| 2026-05-08 17:51 | 19.29065 | -81.36669 | 270 ft | 182 kts | 253° |
| 2026-05-08 17:52 | 19.28767 | -81.38057 | 1176 ft | 202 kts | 256° |
| 2026-05-08 17:52 | 19.28439 | -81.39554 | 2306 ft | 212 kts | 256° |
| 2026-05-08 17:52 | 19.27832 | -81.42512 | 4437 ft | 209 kts | 261° |
| 2026-05-08 17:53 | 19.27943 | -81.44248 | 4612 ft | 261 kts | 277° |
| 2026-05-08 17:53 | 19.28205 | -81.46211 | 5614 ft | 277 kts | 277° |
| 2026-05-08 17:53 | 19.28507 | -81.48275 | 6731 ft | 291 kts | 278° |
| 2026-05-08 17:53 | 19.30364 | -81.57534 | 9995 ft | 373 kts | 282° |
| 2026-05-08 17:54 | 19.31878 | -81.64256 | 11721 ft | 415 kts | 285° |
| 2026-05-08 17:54 | 19.32642 | -81.67212 | 12435 ft | 429 kts | 286° |
| 2026-05-08 17:54 | 19.35416 | -81.77554 | 14656 ft | 469 kts | 286° |
| 2026-05-08 17:54 | 19.39039 | -81.91104 | 17767 ft | 489 kts | 286° |
| 2026-05-08 17:55 | 19.42770 | -82.05218 | 20424 ft | 504 kts | 286° |
| 2026-05-08 17:55 | 19.46531 | -82.19733 | 22888 ft | 516 kts | 286° |
| 2026-05-08 17:55 | 19.50331 | -82.34541 | 24929 ft | 526 kts | 286° |
| 2026-05-08 17:55 | 19.54218 | -82.49454 | 26877 ft | 506 kts | 286° |
| 2026-05-08 17:56 | 19.57982 | -82.63541 | 29575 ft | 502 kts | 286° |
| 2026-05-08 17:56 | 19.61902 | -82.77912 | 30133 ft | 506 kts | 286° |
| 2026-05-08 17:56 | 19.65835 | -82.92209 | 30133 ft | 505 kts | 286° |
| 2026-05-08 17:57 | 19.73784 | -83.20716 | 31779 ft | 497 kts | 287° |
| 2026-05-08 17:57 | 19.77486 | -83.34811 | 33780 ft | 493 kts | 285° |
| 2026-05-08 17:57 | 19.80857 | -83.48900 | 33980 ft | 493 kts | 284° |
| 2026-05-08 17:58 | 19.87645 | -83.77126 | 33992 ft | 493 kts | 284° |
| 2026-05-08 17:58 | 19.94543 | -84.05341 | 33987 ft | 492 kts | 285° |
| 2026-05-08 17:59 | 20.01530 | -84.33468 | 33990 ft | 492 kts | 285° |
| 2026-05-08 17:59 | 20.08618 | -84.61569 | 33989 ft | 491 kts | 285° |
| 2026-05-08 18:00 | 20.20140 | -85.06429 | 33952 ft | 490 kts | 285° |
| 2026-05-08 18:00 | 20.37624 | -85.72315 | 33979 ft | 489 kts | 285° |
| 2026-05-08 18:01 | 20.45250 | -86.00208 | 33980 ft | 489 kts | 286° |
| 2026-05-08 18:01 | 20.52963 | -86.27875 | 33979 ft | 490 kts | 286° |
| 2026-05-08 18:02 | 20.59545 | -86.51198 | 33977 ft | 490 kts | 286° |
| 2026-05-08 18:02 | 20.68796 | -86.83466 | 33991 ft | 490 kts | 286° |
| 2026-05-08 18:03 | 20.76928 | -87.11289 | 33974 ft | 489 kts | 287° |
| 2026-05-08 18:03 | 20.85127 | -87.38795 | 33956 ft | 489 kts | 287° |
| 2026-05-08 18:04 | 20.95803 | -87.73882 | 33940 ft | 489 kts | 287° |
| 2026-05-08 18:04 | 21.05103 | -88.03878 | 33932 ft | 490 kts | 287° |
| 2026-05-08 18:05 | 21.13822 | -88.31567 | 33917 ft | 490 kts | 287° |
| 2026-05-08 18:05 | 21.22440 | -88.58601 | 33917 ft | 491 kts | 287° |
| 2026-05-08 18:06 | 21.31312 | -88.86155 | 33913 ft | 491 kts | 287° |
| 2026-05-08 18:06 | 21.40278 | -89.13838 | 33910 ft | 491 kts | 288° |
| 2026-05-08 18:07 | 21.49307 | -89.41539 | 33908 ft | 491 kts | 288° |
| 2026-05-08 18:07 | 21.58320 | -89.69032 | 33912 ft | 491 kts | 288° |
| 2026-05-08 18:08 | 21.67463 | -89.96708 | 33909 ft | 491 kts | 288° |
| 2026-05-08 18:08 | 21.76692 | -90.24335 | 33922 ft | 490 kts | 288° |
| 2026-05-08 18:09 | 21.85953 | -90.51839 | 33913 ft | 487 kts | 288° |
| 2026-05-08 18:09 | 21.95182 | -90.79139 | 33920 ft | 484 kts | 288° |
| 2026-05-08 18:10 | 22.04453 | -91.06347 | 33924 ft | 482 kts | 289° |
| 2026-05-08 18:10 | 22.13782 | -91.33411 | 33913 ft | 481 kts | 289° |
| 2026-05-08 18:11 | 22.23177 | -91.60444 | 33931 ft | 481 kts | 289° |
| 2026-05-08 18:11 | 22.32641 | -91.87506 | 33918 ft | 482 kts | 289° |
| 2026-05-08 18:12 | 22.42170 | -92.14535 | 33914 ft | 482 kts | 289° |
| 2026-05-08 18:12 | 22.51808 | -92.41594 | 33908 ft | 482 kts | 289° |
| 2026-05-08 18:13 | 22.61570 | -92.68651 | 33906 ft | 482 kts | 289° |
| 2026-05-08 18:13 | 22.71397 | -92.95537 | 33902 ft | 483 kts | 290° |
| 2026-05-08 18:14 | 22.81402 | -93.22479 | 33899 ft | 482 kts | 290° |
| 2026-05-08 18:14 | 22.94525 | -93.56959 | 33895 ft | 481 kts | 290° |
| 2026-05-08 18:15 | 23.15501 | -94.10510 | 33892 ft | 482 kts | 290° |
| 2026-05-08 18:15 | 23.36972 | -94.63921 | 33897 ft | 479 kts | 290° |
| 2026-05-08 18:16 | 23.58516 | -95.16416 | 33897 ft | 477 kts | 291° |
| 2026-05-08 18:16 | 23.80576 | -95.68940 | 33895 ft | 474 kts | 291° |
| 2026-05-08 18:17 | 24.02746 | -96.20885 | 33882 ft | 473 kts | 291° |
| 2026-05-08 18:17 | 24.25130 | -96.72433 | 33890 ft | 473 kts | 291° |
| 2026-05-08 18:18 | 24.48083 | -97.23800 | 33888 ft | 472 kts | 292° |
| 2026-05-08 18:18 | 24.71919 | -97.75671 | 33877 ft | 470 kts | 292° |
| 2026-05-08 18:19 | 24.92210 | -98.18786 | 33877 ft | 468 kts | 292° |
| 2026-05-08 18:19 | 24.99495 | -98.34015 | 33879 ft | 468 kts | 292° |
| 2026-05-08 18:20 | 25.03525 | -98.39649 | 33903 ft | 494 kts | 320° |
| 2026-05-08 18:20 | 25.06718 | -98.41208 | 33907 ft | 514 kts | 339° |
| 2026-05-08 18:20 | 25.34765 | -98.45310 | 33907 ft | 526 kts | 348° |
| 2026-05-08 18:21 | 25.84930 | -98.49300 | 33917 ft | 529 kts | 348° |
| 2026-05-08 18:21 | 26.29703 | -98.54788 | 33934 ft | 484 kts | 313° |
| 2026-05-08 18:22 | 26.31933 | -98.57501 | 33940 ft | 460 kts | 293° |
| 2026-05-08 18:22 | 26.33060 | -98.60745 | 33949 ft | 441 kts | 274° |
| 2026-05-08 18:22 | 26.33001 | -98.63980 | 33949 ft | 430 kts | 254° |
| 2026-05-08 18:22 | 26.31743 | -98.67043 | 33948 ft | 430 kts | 234° |
| 2026-05-08 18:23 | 26.29485 | -98.69260 | 33948 ft | 441 kts | 214° |
| 2026-05-08 18:23 | 26.26616 | -98.70574 | 33931 ft | 450 kts | 205° |
| 2026-05-08 18:23 | 26.23873 | -98.72126 | 33919 ft | 437 kts | 223° |
| 2026-05-08 18:23 | 26.21948 | -98.74664 | 33927 ft | 430 kts | 243° |
| 2026-05-08 18:24 | 26.21113 | -98.77850 | 33927 ft | 434 kts | 263° |
| 2026-05-08 18:24 | 26.22211 | -98.83384 | 33913 ft | 451 kts | 286° |
| 2026-05-08 18:24 | 26.29366 | -98.99805 | 33886 ft | 455 kts | 290° |
| 2026-05-08 18:25 | 26.38664 | -99.20048 | 33891 ft | 454 kts | 290° |
| 2026-05-08 18:25 | 26.48738 | -99.41739 | 33894 ft | 453 kts | 290° |
| 2026-05-08 18:26 | 26.57085 | -99.59594 | 33895 ft | 452 kts | 290° |
| 2026-05-08 18:26 | 26.66378 | -99.79343 | 33890 ft | 451 kts | 290° |
| 2026-05-08 18:27 | 26.75120 | -99.97789 | 33894 ft | 450 kts | 290° |
| 2026-05-08 18:27 | 26.88863 | -100.26471 | 33893 ft | 449 kts | 290° |
| 2026-05-08 18:28 | 27.00765 | -100.51051 | 33887 ft | 449 kts | 290° |
| 2026-05-08 18:28 | 27.10255 | -100.75601 | 33882 ft | 441 kts | 284° |
| 2026-05-08 18:29 | 27.18949 | -101.00371 | 33870 ft | 438 kts | 282° |
| 2026-05-08 18:29 | 27.26128 | -101.26280 | 33869 ft | 436 kts | 281° |
| 2026-05-08 18:30 | 27.33974 | -101.51890 | 33857 ft | 436 kts | 282° |
| 2026-05-08 18:30 | 27.41795 | -101.77031 | 33868 ft | 437 kts | 282° |
| 2026-05-08 18:31 | 27.49901 | -102.02243 | 33844 ft | 435 kts | 283° |
| 2026-05-08 18:31 | 27.58430 | -102.27273 | 33890 ft | 435 kts | 283° |
| 2026-05-08 18:32 | 27.66176 | -102.49631 | 33896 ft | 434 kts | 283° |
| 2026-05-08 18:32 | 27.75010 | -102.75030 | 33890 ft | 432 kts | 283° |
| 2026-05-08 18:33 | 27.83858 | -103.00170 | 33895 ft | 432 kts | 284° |
| 2026-05-08 18:33 | 27.92490 | -103.24515 | 33879 ft | 432 kts | 284° |
| 2026-05-08 18:34 | 27.99748 | -103.44832 | 33878 ft | 432 kts | 284° |
| 2026-05-08 18:34 | 28.02003 | -103.51118 | 33874 ft | 432 kts | 284° |
| 2026-05-08 18:35 | 28.04275 | -103.57441 | 33876 ft | 432 kts | 284° |
| 2026-05-08 18:35 | 28.06543 | -103.63742 | 33870 ft | 432 kts | 284° |
| 2026-05-08 18:36 | 28.08818 | -103.70050 | 33877 ft | 432 kts | 284° |
| 2026-05-08 18:36 | 28.11096 | -103.76355 | 33875 ft | 433 kts | 284° |
| 2026-05-08 18:37 | 28.13382 | -103.82668 | 33880 ft | 433 kts | 284° |
| 2026-05-08 18:37 | 28.15656 | -103.88943 | 33877 ft | 433 kts | 284° |
| 2026-05-08 18:38 | 28.22168 | -104.06897 | 33883 ft | 434 kts | 284° |
| 2026-05-08 18:38 | 28.31267 | -104.32055 | 33896 ft | 435 kts | 284° |
| 2026-05-08 18:39 | 28.40447 | -104.57383 | 33896 ft | 437 kts | 284° |
| 2026-05-08 18:39 | 28.49463 | -104.82349 | 33900 ft | 438 kts | 284° |
| 2026-05-08 18:40 | 28.58206 | -105.07910 | 33876 ft | 438 kts | 283° |
| 2026-05-08 18:40 | 28.66900 | -105.33567 | 33870 ft | 437 kts | 284° |
| 2026-05-08 18:41 | 28.75513 | -105.59354 | 33894 ft | 438 kts | 284° |
| 2026-05-08 18:41 | 28.84086 | -105.85399 | 34032 ft | 440 kts | 284° |
| 2026-05-08 18:42 | 28.92707 | -106.11892 | 33963 ft | 443 kts | 284° |
| 2026-05-08 18:42 | 29.01195 | -106.38205 | 33913 ft | 444 kts | 284° |
| 2026-05-08 18:43 | 29.09486 | -106.64366 | 33963 ft | 446 kts | 284° |
| 2026-05-08 18:43 | 29.17579 | -106.91259 | 33985 ft | 449 kts | 284° |
| 2026-05-08 18:44 | 29.24992 | -107.17330 | 33994 ft | 453 kts | 284° |
| 2026-05-08 18:44 | 29.32122 | -107.43818 | 34007 ft | 459 kts | 284° |
| 2026-05-08 18:45 | 29.38395 | -107.68630 | 34028 ft | 463 kts | 284° |
| 2026-05-08 18:45 | 29.42366 | -107.82988 | 34028 ft | 467 kts | 289° |
| 2026-05-08 18:46 | 29.47174 | -107.96856 | 34026 ft | 469 kts | 294° |
| 2026-05-08 18:46 | 29.52476 | -108.10509 | 34007 ft | 471 kts | 296° |
| 2026-05-08 18:47 | 29.57842 | -108.24068 | 34000 ft | 470 kts | 296° |
| 2026-05-08 18:47 | 29.63141 | -108.37843 | 33995 ft | 471 kts | 296° |
| 2026-05-08 18:48 | 29.68252 | -108.51427 | 33984 ft | 471 kts | 296° |
| 2026-05-08 18:48 | 29.73490 | -108.64991 | 33981 ft | 469 kts | 298° |
| 2026-05-08 18:49 | 29.79180 | -108.78285 | 33972 ft | 469 kts | 299° |
| 2026-05-08 18:49 | 29.85000 | -108.91728 | 33965 ft | 470 kts | 299° |
| 2026-05-08 18:50 | 29.90712 | -109.04867 | 33947 ft | 472 kts | 299° |
| 2026-05-08 18:50 | 29.96601 | -109.18361 | 33932 ft | 473 kts | 299° |
| 2026-05-08 18:51 | 30.02537 | -109.31944 | 33929 ft | 474 kts | 299° |
| 2026-05-08 18:51 | 30.08479 | -109.45545 | 33923 ft | 476 kts | 299° |
| 2026-05-08 18:52 | 30.19804 | -109.71500 | 33930 ft | 478 kts | 299° |
| 2026-05-08 18:52 | 30.31469 | -109.98209 | 33932 ft | 480 kts | 300° |
| 2026-05-08 18:53 | 30.42868 | -110.24179 | 33926 ft | 482 kts | 300° |
| 2026-05-08 18:53 | 30.53544 | -110.48326 | 33925 ft | 483 kts | 300° |
| 2026-05-08 18:54 | 30.63136 | -110.69862 | 33919 ft | 484 kts | 300° |
| 2026-05-08 18:54 | 30.73942 | -110.93904 | 33921 ft | 485 kts | 300° |
| 2026-05-08 18:55 | 30.90824 | -111.30875 | 33932 ft | 486 kts | 300° |
| 2026-05-08 18:56 | 31.02833 | -111.56756 | 33934 ft | 488 kts | 300° |
| 2026-05-08 18:56 | 31.15879 | -111.84481 | 33938 ft | 488 kts | 300° |
| 2026-05-08 18:57 | 31.28214 | -112.10361 | 33937 ft | 489 kts | 300° |
| 2026-05-08 18:57 | 31.40939 | -112.36796 | 33947 ft | 490 kts | 300° |
| 2026-05-08 18:58 | 31.53586 | -112.62863 | 33950 ft | 489 kts | 300° |
| 2026-05-08 18:58 | 31.65601 | -112.90263 | 33955 ft | 490 kts | 295° |
| 2026-05-08 18:58 | 31.69590 | -113.04947 | 33953 ft | 492 kts | 283° |
| 2026-05-08 18:59 | 31.72187 | -113.20644 | 33950 ft | 491 kts | 282° |
| 2026-05-08 18:59 | 31.77564 | -113.51255 | 33952 ft | 491 kts | 284° |
| 2026-05-08 19:00 | 31.82409 | -113.76042 | 33951 ft | 491 kts | 284° |
| 2026-05-08 19:00 | 31.87968 | -113.97101 | 33948 ft | 490 kts | 290° |
| 2026-05-08 19:01 | 31.92461 | -114.12236 | 33948 ft | 490 kts | 290° |
| 2026-05-08 19:01 | 31.96984 | -114.27350 | 33940 ft | 490 kts | 290° |
| 2026-05-08 19:02 | 32.01543 | -114.42499 | 33938 ft | 490 kts | 290° |
| 2026-05-08 19:02 | 32.06279 | -114.57556 | 33935 ft | 489 kts | 292° |
| 2026-05-08 19:03 | 32.11372 | -114.72467 | 33929 ft | 490 kts | 295° |
| 2026-05-08 19:03 | 32.17971 | -114.86471 | 33929 ft | 489 kts | 306° |
| 2026-05-08 19:04 | 32.26073 | -114.99234 | 33928 ft | 489 kts | 307° |
| 2026-05-08 19:04 | 32.34278 | -115.11957 | 33925 ft | 490 kts | 307° |
| 2026-05-08 19:05 | 32.42409 | -115.24533 | 33921 ft | 490 kts | 307° |
| 2026-05-08 19:05 | 32.46622 | -115.31049 | 33529 ft | 493 kts | 307° |
| 2026-05-08 19:05 | 32.50800 | -115.37519 | 32669 ft | 495 kts | 307° |
| 2026-05-08 19:05 | 32.54951 | -115.43962 | 33330 ft | 488 kts | 307° |
| 2026-05-08 19:06 | 32.59130 | -115.50443 | 32641 ft | 497 kts | 307° |
| 2026-05-08 19:06 | 32.63321 | -115.56957 | 31179 ft | 501 kts | 308° |
| 2026-05-08 19:06 | 32.67503 | -115.63488 | 29806 ft | 505 kts | 308° |
| 2026-05-08 19:06 | 32.71827 | -115.70278 | 28219 ft | 510 kts | 308° |
| 2026-05-08 19:07 | 32.73983 | -115.73692 | 27500 ft | 512 kts | 307° |
| 2026-05-08 19:07 | 32.76004 | -115.77147 | 27165 ft | 512 kts | 305° |
| 2026-05-08 19:07 | 32.77977 | -115.80678 | 27031 ft | 512 kts | 304° |
| 2026-05-08 19:07 | 32.79925 | -115.84223 | 26970 ft | 512 kts | 304° |
| 2026-05-08 19:08 | 32.81829 | -115.87802 | 26949 ft | 513 kts | 301° |
| 2026-05-08 19:08 | 32.83556 | -115.91516 | 26945 ft | 513 kts | 299° |
| 2026-05-08 19:08 | 32.85208 | -115.95276 | 26946 ft | 513 kts | 298° |
| 2026-05-08 19:08 | 32.86835 | -115.99054 | 26948 ft | 513 kts | 298° |
| 2026-05-08 19:09 | 32.88452 | -116.02840 | 26954 ft | 513 kts | 298° |
| 2026-05-08 19:09 | 32.90060 | -116.06619 | 26956 ft | 513 kts | 298° |
| 2026-05-08 19:09 | 32.91648 | -116.10358 | 26957 ft | 513 kts | 298° |
| 2026-05-08 19:09 | 32.93279 | -116.14199 | 26958 ft | 512 kts | 297° |
| 2026-05-08 19:10 | 32.94346 | -116.16712 | 26961 ft | 513 kts | 298° |
| 2026-05-08 19:10 | 32.95951 | -116.20497 | 26962 ft | 512 kts | 298° |
| 2026-05-08 19:10 | 32.97557 | -116.24287 | 26966 ft | 512 kts | 298° |
| 2026-05-08 19:10 | 32.99159 | -116.28072 | 26969 ft | 512 kts | 298° |
| 2026-05-08 19:11 | 33.00758 | -116.31850 | 26971 ft | 512 kts | 298° |
| 2026-05-08 19:11 | 33.02365 | -116.35644 | 26971 ft | 512 kts | 298° |
| 2026-05-08 19:11 | 33.03967 | -116.39422 | 26974 ft | 512 kts | 298° |
| 2026-05-08 19:11 | 33.05574 | -116.43210 | 26957 ft | 512 kts | 298° |
| 2026-05-08 19:12 | 33.07137 | -116.46891 | 26677 ft | 514 kts | 298° |
| 2026-05-08 19:12 | 33.08764 | -116.50717 | 25988 ft | 517 kts | 298° |
| 2026-05-08 19:12 | 33.10382 | -116.54526 | 25455 ft | 518 kts | 298° |
| 2026-05-08 19:12 | 33.11753 | -116.58516 | 25213 ft | 520 kts | 287° |
| 2026-05-08 19:13 | 33.12611 | -116.62704 | 25124 ft | 520 kts | 283° |
| 2026-05-08 19:13 | 33.13350 | -116.66920 | 25083 ft | 521 kts | 282° |
| 2026-05-08 19:13 | 33.14046 | -116.71110 | 25071 ft | 520 kts | 282° |
| 2026-05-08 19:13 | 33.14656 | -116.74864 | 25068 ft | 520 kts | 282° |
| 2026-05-08 19:14 | 33.15357 | -116.79201 | 25037 ft | 521 kts | 282° |
| 2026-05-08 19:14 | 33.16052 | -116.83499 | 24433 ft | 524 kts | 282° |
| 2026-05-08 19:14 | 33.16735 | -116.87729 | 23724 ft | 526 kts | 282° |
| 2026-05-08 19:14 | 33.17409 | -116.91904 | 22922 ft | 528 kts | 282° |
| 2026-05-08 19:15 | 33.18131 | -116.96368 | 22074 ft | 531 kts | 282° |
| 2026-05-08 19:15 | 33.18834 | -117.00697 | 21279 ft | 533 kts | 282° |
| 2026-05-08 19:15 | 33.19543 | -117.05038 | 20504 ft | 535 kts | 282° |
| 2026-05-08 19:15 | 33.20255 | -117.09383 | 19750 ft | 537 kts | 282° |
| 2026-05-08 19:16 | 33.20971 | -117.13738 | 19011 ft | 540 kts | 282° |
| 2026-05-08 19:16 | 33.21704 | -117.18185 | 18271 ft | 542 kts | 282° |
| 2026-05-08 19:16 | 33.22433 | -117.22604 | 17446 ft | 544 kts | 282° |
| 2026-05-08 19:16 | 33.23169 | -117.27051 | 16641 ft | 545 kts | 282° |
| 2026-05-08 19:17 | 33.23908 | -117.31496 | 15857 ft | 548 kts | 282° |
| 2026-05-08 19:17 | 33.24638 | -117.35978 | 15089 ft | 550 kts | 281° |
| 2026-05-08 19:17 | 33.25307 | -117.40474 | 14340 ft | 552 kts | 280° |
| 2026-05-08 19:17 | 33.25955 | -117.45010 | 13716 ft | 553 kts | 280° |
| 2026-05-08 19:18 | 33.26597 | -117.49534 | 13474 ft | 553 kts | 280° |
| 2026-05-08 19:18 | 33.27243 | -117.54051 | 12656 ft | 553 kts | 280° |
| 2026-05-08 19:18 | 33.28383 | -117.58452 | 11817 ft | 554 kts | 295° |
| 2026-05-08 19:18 | 33.30503 | -117.62216 | 11020 ft | 555 kts | 309° |
| 2026-05-08 19:19 | 33.33080 | -117.65649 | 10243 ft | 554 kts | 313° |
| 2026-05-08 19:19 | 33.35588 | -117.68805 | 9619 ft | 484 kts | 313° |
| 2026-05-08 19:19 | 33.37479 | -117.71128 | 9336 ft | 298 kts | 313° |
| 2026-05-08 19:19 | 33.38656 | -117.72709 | 9181 ft | 241 kts | 309° |
| 2026-05-08 19:20 | 33.39743 | -117.74275 | 9103 ft | 243 kts | 307° |
| 2026-05-08 19:20 | 33.40432 | -117.75316 | 9091 ft | 239 kts | 307° |
| 2026-05-08 19:20 | 33.41767 | -117.77413 | 9079 ft | 241 kts | 306° |
| 2026-05-08 19:20 | 33.42781 | -117.79042 | 9076 ft | 239 kts | 306° |
| 2026-05-08 19:21 | 33.43788 | -117.80669 | 8511 ft | 253 kts | 305° |
| 2026-05-08 19:21 | 33.44781 | -117.82377 | 8294 ft | 243 kts | 303° |
| 2026-05-08 19:21 | 33.45699 | -117.84058 | 7975 ft | 240 kts | 302° |
| 2026-05-08 19:21 | 33.46594 | -117.85737 | 7607 ft | 237 kts | 302° |
| 2026-05-08 19:22 | 33.47462 | -117.87379 | 7335 ft | 231 kts | 301° |
| 2026-05-08 19:22 | 33.48302 | -117.88974 | 7180 ft | 221 kts | 301° |
| 2026-05-08 19:22 | 33.49233 | -117.90418 | 7144 ft | 224 kts | 326° |
| 2026-05-08 19:22 | 33.50674 | -117.91133 | 7127 ft | 231 kts | 342° |
| 2026-05-08 19:23 | 33.52260 | -117.91604 | 6922 ft | 235 kts | 345° |
| 2026-05-08 19:23 | 33.53865 | -117.92019 | 6562 ft | 235 kts | 346° |
| 2026-05-08 19:23 | 33.55439 | -117.92394 | 6235 ft | 232 kts | 346° |
| 2026-05-08 19:23 | 33.57020 | -117.92753 | 5843 ft | 232 kts | 346° |
| 2026-05-08 19:24 | 33.58611 | -117.93108 | 5482 ft | 230 kts | 347° |
| 2026-05-08 19:24 | 33.60181 | -117.93458 | 5180 ft | 226 kts | 347° |
| 2026-05-08 19:24 | 33.61692 | -117.93796 | 4781 ft | 227 kts | 347° |
| 2026-05-08 19:24 | 33.63100 | -117.94225 | 4432 ft | 224 kts | 336° |
| 2026-05-08 19:25 | 33.64467 | -117.94991 | 4242 ft | 215 kts | 330° |
| 2026-05-08 19:25 | 33.65716 | -117.95823 | 4160 ft | 210 kts | 329° |
| 2026-05-08 19:25 | 33.66791 | -117.96578 | 4126 ft | 216 kts | 328° |
| 2026-05-08 19:25 | 33.68085 | -117.97509 | 4109 ft | 216 kts | 328° |
| 2026-05-08 19:26 | 33.69247 | -117.98361 | 4088 ft | 212 kts | 327° |
| 2026-05-08 19:26 | 33.70403 | -117.99265 | 4051 ft | 195 kts | 325° |
| 2026-05-08 19:26 | 33.71341 | -118.00017 | 4061 ft | 192 kts | 325° |
| 2026-05-08 19:26 | 33.72443 | -118.00911 | 4065 ft | 195 kts | 324° |
| 2026-05-08 19:27 | 33.73546 | -118.01811 | 4057 ft | 191 kts | 324° |
| 2026-05-08 19:27 | 33.74651 | -118.02709 | 4030 ft | 194 kts | 325° |
| 2026-05-08 19:27 | 33.75778 | -118.03593 | 3831 ft | 192 kts | 327° |
| 2026-05-08 19:27 | 33.76895 | -118.04424 | 3588 ft | 188 kts | 328° |
| 2026-05-08 19:28 | 33.78002 | -118.05228 | 3314 ft | 193 kts | 328° |
| 2026-05-08 19:28 | 33.79129 | -118.06032 | 3148 ft | 193 kts | 330° |
| 2026-05-08 19:28 | 33.80185 | -118.06716 | 3084 ft | 191 kts | 332° |
| 2026-05-08 19:28 | 33.81297 | -118.07380 | 3063 ft | 190 kts | 333° |
| 2026-05-08 19:29 | 33.82391 | -118.08011 | 3038 ft | 193 kts | 334° |
| 2026-05-08 19:29 | 33.83358 | -118.08545 | 3027 ft | 192 kts | 339° |
| 2026-05-08 19:29 | 33.84402 | -118.08949 | 3025 ft | 192 kts | 345° |
| 2026-05-08 19:29 | 33.85420 | -118.09233 | 3016 ft | 193 kts | 347° |
| 2026-05-08 19:30 | 33.86486 | -118.09433 | 3009 ft | 194 kts | 353° |
| 2026-05-08 19:30 | 33.87611 | -118.09617 | 3004 ft | 191 kts | 349° |
| 2026-05-08 19:30 | 33.88866 | -118.09902 | 3008 ft | 193 kts | 348° |
| 2026-05-08 19:30 | 33.90136 | -118.10197 | 3008 ft | 192 kts | 349° |
| 2026-05-08 19:31 | 33.91188 | -118.10427 | 3065 ft | 168 kts | 349° |
| 2026-05-08 19:31 | 33.92075 | -118.10614 | 3038 ft | 173 kts | 349° |
| 2026-05-08 19:31 | 33.93109 | -118.10833 | 3022 ft | 175 kts | 348° |
| 2026-05-08 19:31 | 33.93773 | -118.11137 | 3010 ft | 174 kts | 323° |
| 2026-05-08 19:32 | 33.94296 | -118.12155 | 3007 ft | 170 kts | 281° |
| 2026-05-08 19:32 | 33.94425 | -118.13161 | 2999 ft | 171 kts | 277° |
| 2026-05-08 19:32 | 33.94551 | -118.14337 | 2997 ft | 172 kts | 278° |
| 2026-05-08 19:32 | 33.94761 | -118.15669 | 2988 ft | 171 kts | 282° |
| 2026-05-08 19:33 | 33.94938 | -118.16885 | 2972 ft | 172 kts | 277° |
| 2026-05-08 19:33 | 33.95027 | -118.18167 | 2949 ft | 172 kts | 273° |
| 2026-05-08 19:33 | 33.95070 | -118.19384 | 2923 ft | 171 kts | 271° |
| 2026-05-08 19:33 | 33.95061 | -118.20411 | 2900 ft | 171 kts | 269° |
| 2026-05-08 19:34 | 33.95033 | -118.21416 | 2872 ft | 172 kts | 268° |
| 2026-05-08 19:34 | 33.94971 | -118.22610 | 2736 ft | 172 kts | 265° |
| 2026-05-08 19:34 | 33.94865 | -118.23754 | 2573 ft | 170 kts | 263° |
| 2026-05-08 19:34 | 33.94783 | -118.24591 | 2467 ft | 171 kts | 263° |
| 2026-05-08 19:35 | 33.94684 | -118.25590 | 2339 ft | 170 kts | 264° |
| 2026-05-08 19:35 | 33.94595 | -118.26966 | 2150 ft | 169 kts | 266° |
| 2026-05-08 19:35 | 33.94539 | -118.28110 | 2007 ft | 168 kts | 266° |
| 2026-05-08 19:35 | 33.94492 | -118.29105 | 1896 ft | 169 kts | 267° |
| 2026-05-08 19:36 | 33.94451 | -118.30064 | 1784 ft | 169 kts | 267° |
| 2026-05-08 19:36 | 33.94399 | -118.31049 | 1653 ft | 169 kts | 266° |
| 2026-05-08 19:36 | 33.94326 | -118.32093 | 1466 ft | 169 kts | 265° |
| 2026-05-08 19:36 | 33.94225 | -118.33349 | 1191 ft | 167 kts | 264° |
| 2026-05-08 19:37 | 33.94105 | -118.34665 | 901 ft | 166 kts | 263° |
| 2026-05-08 19:37 | 33.93974 | -118.36005 | 635 ft | 166 kts | 263° |
| 2026-05-08 19:37 | 33.93842 | -118.37364 | 358 ft | 165 kts | 263° |
| 2026-05-08 19:37 | 33.93704 | -118.38717 | 126 ft | 162 kts | 263° |
| 2026-05-08 19:38 | 33.93546 | -118.39996 | 126 ft | 127 kts | 260° |
| 2026-05-08 19:38 | 33.93488 | -118.40717 | 126 ft | 60 kts | 263° |
| 2026-05-08 19:38 | 33.93445 | -118.41117 | 126 ft | 43 kts | 261° |
| 2026-05-08 19:38 | 33.93407 | -118.41460 | 124 ft | 41 kts | 263° |
| 2026-05-08 19:39 | 33.93375 | -118.41795 | 126 ft | 31 kts | 264° |
| 2026-05-08 19:39 | 33.93419 | -118.41894 | 122 ft | 10 kts | 352° |
| 2026-05-08 19:39 | 33.93477 | -118.41903 | 124 ft | 0 kts | 353° |
| 2026-05-08 19:40 | 33.93478 | -118.41903 | 124 ft | 2 kts | 353° |
| 2026-05-08 19:41 | 33.93512 | -118.41909 | 123 ft | 8 kts | 352° |
| 2026-05-08 19:41 | 33.93585 | -118.41922 | 123 ft | 13 kts | 351° |
| 2026-05-08 19:41 | 33.93692 | -118.41940 | 126 ft | 13 kts | 353° |
| 2026-05-08 19:41 | 33.93698 | -118.41941 | 125 ft | 0 kts | 353° |
| 2026-05-08 19:43 | 33.93712 | -118.41942 | 123 ft | 5 kts | 356° |
| 2026-05-08 19:43 | 33.93740 | -118.41936 | 122 ft | 4 kts | 23° |
| 2026-05-08 19:43 | 33.93760 | -118.41913 | 123 ft | 4 kts | 56° |
| 2026-05-08 19:43 | 33.93771 | -118.41871 | 125 ft | 7 kts | 75° |
| 2026-05-08 19:44 | 33.93774 | -118.41837 | 126 ft | 9 kts | 85° |
| 2026-05-08 19:44 | 33.93780 | -118.41759 | 126 ft | 13 kts | 82° |
| 2026-05-08 19:44 | 33.93795 | -118.41626 | 123 ft | 19 kts | 82° |
| 2026-05-08 19:45 | 33.93807 | -118.41516 | 126 ft | 22 kts | 84° |
| 2026-05-08 19:45 | 33.93826 | -118.41334 | 121 ft | 22 kts | 83° |
| 2026-05-08 19:45 | 33.93853 | -118.41177 | 126 ft | 13 kts | 40° |
| 2026-05-08 19:45 | 33.93895 | -118.41167 | 123 ft | 11 kts | 356° |
| 2026-05-08 19:46 | 33.93967 | -118.41177 | 123 ft | 15 kts | 351° |
| 2026-05-08 19:46 | 33.94042 | -118.41188 | 124 ft | 18 kts | 353° |
| 2026-05-08 19:46 | 33.94283 | -118.41226 | 123 ft | 21 kts | 353° |
| 2026-05-08 19:47 | 33.94407 | -118.41243 | 123 ft | 16 kts | 353° |
| 2026-05-08 19:47 | 33.94452 | -118.41232 | 123 ft | 2 kts | 82° |
| 2026-05-08 19:47 | 33.94456 | -118.41193 | 125 ft | 8 kts | 81° |
| 2026-05-08 19:47 | 33.94463 | -118.41133 | 123 ft | 0 kts | 82° |